Bertioga, Brazil
Current Conditions -  °F | °C
As of 10:00 AM on Thursday 30 Oct 2014 (Local Time) from SBST Reporting Station
Clear Clear  
Wind Chill: 81°   Ceiling: Unl
Heat Index: 83°   Visibility: 6mi
Dew Point: 66°   Wind: 0mph
Humidity: 61%   Direction: NA
Pressure: 29.8"   Gusts: NA
Location:  23.85°S, 46.14°W
Report Text: SBST 301200Z 00000KT CAVOK 27/19 Q1009
Loading
Personal Weather Stations






























Interactive Weather Map
Tropical Storm Tracking
New forecast layout! Learn more

10-Day Weather Forecast

Advertisements
Track Severe Weather on mobile